sensor_id;sensor_type;location;lat;lon;timestamp;P1;durP1;ratioP1;P2;durP2;ratioP2
58966;SDS011;44744;51.894;5.080;2022-07-23T00:00:46;9.10;;;3.90;;
58966;SDS011;44744;51.894;5.080;2022-07-23T00:01:46;4.70;;;3.80;;
58966;SDS011;44744;51.894;5.080;2022-07-23T00:02:49;5.00;;;3.60;;
58966;SDS011;44744;51.894;5.080;2022-07-23T00:03:50;5.90;;;3.90;;
58966;SDS011;44744;51.894;5.080;2022-07-23T00:04:50;5.60;;;3.90;;
58966;SDS011;44744;51.894;5.080;2022-07-23T00:05:51;5.80;;;4.20;;
58966;SDS011;44744;51.894;5.080;2022-07-23T00:06:51;7.00;;;4.00;;
58966;SDS011;44744;51.894;5.080;2022-07-23T00:07:52;7.40;;;3.90;;
58966;SDS011;44744;51.894;5.080;2022-07-23T00:08:52;5.60;;;3.80;;
58966;SDS011;44744;51.894;5.080;2022-07-23T00:09:53;5.50;;;4.50;;
58966;SDS011;44744;51.894;5.080;2022-07-23T00:10:56;4.60;;;3.80;;
58966;SDS011;44744;51.894;5.080;2022-07-23T00:11:56;6.70;;;4.50;;
58966;SDS011;44744;51.894;5.080;2022-07-23T00:13:05;4.70;;;3.70;;
58966;SDS011;44744;51.894;5.080;2022-07-23T00:14:06;6.40;;;4.30;;
58966;SDS011;44744;51.894;5.080;2022-07-23T00:15:07;5.80;;;4.70;;
58966;SDS011;44744;51.894;5.080;2022-07-23T00:16:11;5.30;;;4.20;;
58966;SDS011;44744;51.894;5.080;2022-07-23T00:17:14;6.20;;;4.40;;
58966;SDS011;44744;51.894;5.080;2022-07-23T00:18:14;5.30;;;4.00;;
58966;SDS011;44744;51.894;5.080;2022-07-23T00:19:14;9.30;;;4.00;;
58966;SDS011;44744;51.894;5.080;2022-07-23T00:20:15;6.80;;;4.40;;
58966;SDS011;44744;51.894;5.080;2022-07-23T00:21:15;4.80;;;3.80;;
58966;SDS011;44744;51.894;5.080;2022-07-23T00:22:15;5.70;;;4.00;;
58966;SDS011;44744;51.894;5.080;2022-07-23T00:23:16;7.00;;;4.00;;
58966;SDS011;44744;51.894;5.080;2022-07-23T00:24:17;6.30;;;4.30;;
58966;SDS011;44744;51.894;5.080;2022-07-23T00:25:18;6.70;;;4.20;;
58966;SDS011;44744;51.894;5.080;2022-07-23T00:26:20;5.20;;;3.90;;
58966;SDS011;44744;51.894;5.080;2022-07-23T00:27:20;5.10;;;3.90;;
58966;SDS011;44744;51.894;5.080;2022-07-23T00:28:21;10.00;;;4.00;;
58966;SDS011;44744;51.894;5.080;2022-07-23T00:29:21;6.20;;;3.90;;
58966;SDS011;44744;51.894;5.080;2022-07-23T00:30:21;7.80;;;4.20;;
58966;SDS011;44744;51.894;5.080;2022-07-23T00:31:21;5.50;;;3.90;;
58966;SDS011;44744;51.894;5.080;2022-07-23T00:32:22;7.60;;;4.40;;
58966;SDS011;44744;51.894;5.080;2022-07-23T00:33:22;5.50;;;3.90;;
58966;SDS011;44744;51.894;5.080;2022-07-23T00:34:22;7.20;;;4.70;;
58966;SDS011;44744;51.894;5.080;2022-07-23T00:35:23;8.40;;;4.50;;
58966;SDS011;44744;51.894;5.080;2022-07-23T00:36:25;5.70;;;4.00;;
58966;SDS011;44744;51.894;5.080;2022-07-23T00:37:25;7.10;;;4.20;;
58966;SDS011;44744;51.894;5.080;2022-07-23T00:38:29;6.40;;;4.50;;
58966;SDS011;44744;51.894;5.080;2022-07-23T00:39:29;5.60;;;4.40;;
58966;SDS011;44744;51.894;5.080;2022-07-23T00:40:29;6.40;;;4.40;;
58966;SDS011;44744;51.894;5.080;2022-07-23T00:41:30;9.70;;;4.70;;
58966;SDS011;44744;51.894;5.080;2022-07-23T00:42:31;6.50;;;4.40;;
58966;SDS011;44744;51.894;5.080;2022-07-23T00:43:32;7.00;;;4.60;;
58966;SDS011;44744;51.894;5.080;2022-07-23T00:44:32;5.50;;;4.50;;
58966;SDS011;44744;51.894;5.080;2022-07-23T00:45:32;6.50;;;4.30;;
58966;SDS011;44744;51.894;5.080;2022-07-23T00:46:33;5.50;;;4.40;;
58966;SDS011;44744;51.894;5.080;2022-07-23T00:47:33;5.60;;;4.30;;
58966;SDS011;44744;51.894;5.080;2022-07-23T00:48:34;5.60;;;4.00;;
58966;SDS011;44744;51.894;5.080;2022-07-23T00:49:34;8.00;;;4.30;;
58966;SDS011;44744;51.894;5.080;2022-07-23T00:50:34;5.90;;;4.20;;
58966;SDS011;44744;51.894;5.080;2022-07-23T00:51:35;5.70;;;3.90;;
58966;SDS011;44744;51.894;5.080;2022-07-23T00:52:36;6.60;;;4.10;;
58966;SDS011;44744;51.894;5.080;2022-07-23T00:54:38;5.30;;;3.90;;
58966;SDS011;44744;51.894;5.080;2022-07-23T00:55:39;6.40;;;3.90;;
58966;SDS011;44744;51.894;5.080;2022-07-23T00:56:40;9.00;;;4.40;;
58966;SDS011;44744;51.894;5.080;2022-07-23T00:57:42;5.30;;;3.70;;
58966;SDS011;44744;51.894;5.080;2022-07-23T00:58:43;5.50;;;3.30;;
58966;SDS011;44744;51.894;5.080;2022-07-23T00:59:44;5.20;;;3.90;;
58966;SDS011;44744;51.894;5.080;2022-07-23T01:00:44;5.00;;;4.00;;
58966;SDS011;44744;51.894;5.080;2022-07-23T01:01:45;4.70;;;3.80;;
58966;SDS011;44744;51.894;5.080;2022-07-23T01:02:45;6.30;;;3.70;;
58966;SDS011;44744;51.894;5.080;2022-07-23T01:03:46;5.90;;;3.80;;
58966;SDS011;44744;51.894;5.080;2022-07-23T01:04:46;5.60;;;3.90;;
58966;SDS011;44744;51.894;5.080;2022-07-23T01:05:52;6.30;;;3.60;;
58966;SDS011;44744;51.894;5.080;2022-07-23T01:06:54;6.40;;;3.60;;
58966;SDS011;44744;51.894;5.080;2022-07-23T01:07:56;5.20;;;4.00;;
58966;SDS011;44744;51.894;5.080;2022-07-23T01:08:57;5.90;;;3.90;;
58966;SDS011;44744;51.894;5.080;2022-07-23T01:09:57;5.10;;;3.50;;
58966;SDS011;44744;51.894;5.080;2022-07-23T01:10:59;7.00;;;3.90;;
58966;SDS011;44744;51.894;5.080;2022-07-23T01:12:02;6.20;;;4.20;;
58966;SDS011;44744;51.894;5.080;2022-07-23T01:13:06;10.10;;;4.70;;
58966;SDS011;44744;51.894;5.080;2022-07-23T01:14:12;7.60;;;4.40;;
58966;SDS011;44744;51.894;5.080;2022-07-23T01:15:17;6.50;;;4.20;;
58966;SDS011;44744;51.894;5.080;2022-07-23T01:16:17;5.30;;;3.50;;
58966;SDS011;44744;51.894;5.080;2022-07-23T01:17:17;5.80;;;3.90;;
58966;SDS011;44744;51.894;5.080;2022-07-23T01:18:18;5.50;;;3.60;;
58966;SDS011;44744;51.894;5.080;2022-07-23T01:19:18;7.10;;;4.00;;
58966;SDS011;44744;51.894;5.080;2022-07-23T01:20:19;7.50;;;3.90;;
58966;SDS011;44744;51.894;5.080;2022-07-23T01:21:19;5.40;;;3.70;;
58966;SDS011;44744;51.894;5.080;2022-07-23T01:22:20;6.10;;;3.70;;
58966;SDS011;44744;51.894;5.080;2022-07-23T01:23:21;6.50;;;3.70;;
58966;SDS011;44744;51.894;5.080;2022-07-23T01:24:21;7.00;;;3.90;;
58966;SDS011;44744;51.894;5.080;2022-07-23T01:25:22;5.20;;;3.90;;
58966;SDS011;44744;51.894;5.080;2022-07-23T01:26:25;6.80;;;3.90;;
58966;SDS011;44744;51.894;5.080;2022-07-23T01:27:25;5.00;;;3.50;;
58966;SDS011;44744;51.894;5.080;2022-07-23T01:28:27;4.70;;;3.50;;
58966;SDS011;44744;51.894;5.080;2022-07-23T01:29:28;6.20;;;3.40;;
58966;SDS011;44744;51.894;5.080;2022-07-23T01:30:28;6.30;;;3.80;;
58966;SDS011;44744;51.894;5.080;2022-07-23T01:31:29;7.20;;;3.80;;
58966;SDS011;44744;51.894;5.080;2022-07-23T01:32:29;4.90;;;3.50;;
58966;SDS011;44744;51.894;5.080;2022-07-23T01:33:29;6.50;;;3.80;;
58966;SDS011;44744;51.894;5.080;2022-07-23T01:34:30;6.70;;;3.50;;
58966;SDS011;44744;51.894;5.080;2022-07-23T01:35:30;5.60;;;3.30;;
58966;SDS011;44744;51.894;5.080;2022-07-23T01:36:30;7.20;;;3.60;;
58966;SDS011;44744;51.894;5.080;2022-07-23T01:37:31;6.00;;;3.80;;
58966;SDS011;44744;51.894;5.080;2022-07-23T01:38:31;5.10;;;3.40;;
58966;SDS011;44744;51.894;5.080;2022-07-23T01:39:31;5.00;;;3.60;;
58966;SDS011;44744;51.894;5.080;2022-07-23T01:40:35;4.80;;;3.50;;
58966;SDS011;44744;51.894;5.080;2022-07-23T01:41:37;5.80;;;3.70;;
58966;SDS011;44744;51.894;5.080;2022-07-23T01:42:38;4.90;;;3.40;;
58966;SDS011;44744;51.894;5.080;2022-07-23T01:43:38;4.90;;;3.40;;
58966;SDS011;44744;51.894;5.080;2022-07-23T01:44:39;6.30;;;4.10;;
58966;SDS011;44744;51.894;5.080;2022-07-23T01:45:39;6.60;;;3.00;;
58966;SDS011;44744;51.894;5.080;2022-07-23T01:46:39;4.60;;;3.10;;
58966;SDS011;44744;51.894;5.080;2022-07-23T01:47:40;6.90;;;3.00;;
58966;SDS011;44744;51.894;5.080;2022-07-23T01:48:40;4.50;;;3.60;;
58966;SDS011;44744;51.894;5.080;2022-07-23T01:49:40;4.30;;;3.50;;
58966;SDS011;44744;51.894;5.080;2022-07-23T01:50:41;5.40;;;3.80;;
58966;SDS011;44744;51.894;5.080;2022-07-23T01:51:41;5.80;;;3.90;;
58966;SDS011;44744;51.894;5.080;2022-07-23T01:52:41;7.20;;;3.80;;
58966;SDS011;44744;51.894;5.080;2022-07-23T01:53:42;8.20;;;3.40;;
58966;SDS011;44744;51.894;5.080;2022-07-23T01:54:42;6.50;;;3.80;;
58966;SDS011;44744;51.894;5.080;2022-07-23T01:55:43;5.50;;;3.90;;
58966;SDS011;44744;51.894;5.080;2022-07-23T01:56:43;4.40;;;3.30;;
58966;SDS011;44744;51.894;5.080;2022-07-23T01:57:43;4.30;;;3.10;;
58966;SDS011;44744;51.894;5.080;2022-07-23T01:58:44;5.50;;;3.40;;
58966;SDS011;44744;51.894;5.080;2022-07-23T01:59:44;5.30;;;3.10;;
58966;SDS011;44744;51.894;5.080;2022-07-23T02:00:44;5.10;;;3.60;;
58966;SDS011;44744;51.894;5.080;2022-07-23T02:01:44;7.70;;;3.70;;
58966;SDS011;44744;51.894;5.080;2022-07-23T02:02:45;6.60;;;3.70;;
58966;SDS011;44744;51.894;5.080;2022-07-23T02:03:45;6.40;;;3.40;;
58966;SDS011;44744;51.894;5.080;2022-07-23T02:04:46;5.70;;;3.40;;
58966;SDS011;44744;51.894;5.080;2022-07-23T02:05:46;4.10;;;3.40;;
58966;SDS011;44744;51.894;5.080;2022-07-23T02:06:47;7.40;;;4.00;;
58966;SDS011;44744;51.894;5.080;2022-07-23T02:07:48;5.00;;;3.50;;
58966;SDS011;44744;51.894;5.080;2022-07-23T02:08:48;4.50;;;3.60;;
58966;SDS011;44744;51.894;5.080;2022-07-23T02:09:48;6.20;;;3.60;;
58966;SDS011;44744;51.894;5.080;2022-07-23T02:10:49;5.50;;;3.70;;
58966;SDS011;44744;51.894;5.080;2022-07-23T02:11:49;8.80;;;3.70;;
58966;SDS011;44744;51.894;5.080;2022-07-23T02:12:50;6.90;;;4.00;;
58966;SDS011;44744;51.894;5.080;2022-07-23T02:13:50;5.20;;;3.60;;
58966;SDS011;44744;51.894;5.080;2022-07-23T02:14:50;7.60;;;4.40;;
58966;SDS011;44744;51.894;5.080;2022-07-23T02:15:51;5.80;;;4.00;;
58966;SDS011;44744;51.894;5.080;2022-07-23T02:16:51;6.10;;;4.00;;
58966;SDS011;44744;51.894;5.080;2022-07-23T02:17:51;10.50;;;4.20;;
58966;SDS011;44744;51.894;5.080;2022-07-23T02:18:52;12.10;;;3.90;;
58966;SDS011;44744;51.894;5.080;2022-07-23T02:19:52;4.90;;;3.70;;
58966;SDS011;44744;51.894;5.080;2022-07-23T02:20:52;9.00;;;4.00;;
58966;SDS011;44744;51.894;5.080;2022-07-23T02:21:52;4.60;;;3.70;;
58966;SDS011;44744;51.894;5.080;2022-07-23T02:22:53;4.20;;;3.60;;
58966;SDS011;44744;51.894;5.080;2022-07-23T02:23:53;5.20;;;3.80;;
58966;SDS011;44744;51.894;5.080;2022-07-23T02:24:54;6.00;;;3.90;;
58966;SDS011;44744;51.894;5.080;2022-07-23T02:25:56;5.90;;;3.90;;
58966;SDS011;44744;51.894;5.080;2022-07-23T02:26:57;5.20;;;3.90;;
58966;SDS011;44744;51.894;5.080;2022-07-23T02:27:57;5.90;;;4.20;;
58966;SDS011;44744;51.894;5.080;2022-07-23T02:28:58;5.20;;;4.00;;
58966;SDS011;44744;51.894;5.080;2022-07-23T02:29:58;6.80;;;3.90;;
58966;SDS011;44744;51.894;5.080;2022-07-23T02:30:58;4.80;;;3.40;;
58966;SDS011;44744;51.894;5.080;2022-07-23T02:31:59;8.20;;;3.90;;
58966;SDS011;44744;51.894;5.080;2022-07-23T02:32:59;4.50;;;3.60;;
58966;SDS011;44744;51.894;5.080;2022-07-23T02:34:00;5.30;;;3.90;;
58966;SDS011;44744;51.894;5.080;2022-07-23T02:35:01;4.40;;;3.70;;
58966;SDS011;44744;51.894;5.080;2022-07-23T02:36:03;5.20;;;3.40;;
58966;SDS011;44744;51.894;5.080;2022-07-23T02:37:06;6.50;;;3.20;;
58966;SDS011;44744;51.894;5.080;2022-07-23T02:38:07;4.90;;;3.00;;
58966;SDS011;44744;51.894;5.080;2022-07-23T02:39:07;7.50;;;3.50;;
58966;SDS011;44744;51.894;5.080;2022-07-23T02:40:07;3.80;;;2.80;;
58966;SDS011;44744;51.894;5.080;2022-07-23T02:41:08;4.70;;;3.60;;
58966;SDS011;44744;51.894;5.080;2022-07-23T02:42:09;5.70;;;3.80;;
58966;SDS011;44744;51.894;5.080;2022-07-23T02:43:09;5.30;;;3.30;;
58966;SDS011;44744;51.894;5.080;2022-07-23T02:44:09;4.00;;;3.60;;
58966;SDS011;44744;51.894;5.080;2022-07-23T02:45:10;5.70;;;3.60;;
58966;SDS011;44744;51.894;5.080;2022-07-23T02:46:10;5.10;;;3.90;;
58966;SDS011;44744;51.894;5.080;2022-07-23T02:47:10;6.00;;;4.00;;
58966;SDS011;44744;51.894;5.080;2022-07-23T02:48:11;5.90;;;4.10;;
58966;SDS011;44744;51.894;5.080;2022-07-23T02:49:11;4.00;;;3.60;;
58966;SDS011;44744;51.894;5.080;2022-07-23T02:50:12;4.50;;;3.80;;
58966;SDS011;44744;51.894;5.080;2022-07-23T02:51:12;6.40;;;4.20;;
58966;SDS011;44744;51.894;5.080;2022-07-23T02:52:12;4.40;;;4.00;;
58966;SDS011;44744;51.894;5.080;2022-07-23T02:53:13;9.20;;;4.80;;
58966;SDS011;44744;51.894;5.080;2022-07-23T02:54:13;5.30;;;3.60;;
58966;SDS011;44744;51.894;5.080;2022-07-23T02:55:13;4.50;;;4.00;;
58966;SDS011;44744;51.894;5.080;2022-07-23T02:56:14;7.30;;;3.70;;
58966;SDS011;44744;51.894;5.080;2022-07-23T02:57:14;3.70;;;2.80;;
58966;SDS011;44744;51.894;5.080;2022-07-23T02:58:15;3.70;;;3.20;;
58966;SDS011;44744;51.894;5.080;2022-07-23T02:59:15;4.10;;;2.80;;
58966;SDS011;44744;51.894;5.080;2022-07-23T03:00:16;5.90;;;3.10;;
58966;SDS011;44744;51.894;5.080;2022-07-23T03:01:16;4.00;;;3.00;;
58966;SDS011;44744;51.894;5.080;2022-07-23T03:02:16;6.50;;;3.40;;
58966;SDS011;44744;51.894;5.080;2022-07-23T03:03:17;6.00;;;3.40;;
58966;SDS011;44744;51.894;5.080;2022-07-23T03:04:17;3.70;;;3.20;;
58966;SDS011;44744;51.894;5.080;2022-07-23T03:05:17;4.20;;;3.10;;
58966;SDS011;44744;51.894;5.080;2022-07-23T03:06:18;3.90;;;3.30;;
58966;SDS011;44744;51.894;5.080;2022-07-23T03:07:21;5.20;;;3.10;;
58966;SDS011;44744;51.894;5.080;2022-07-23T03:08:21;6.40;;;4.30;;
58966;SDS011;44744;51.894;5.080;2022-07-23T03:09:21;4.90;;;3.50;;
58966;SDS011;44744;51.894;5.080;2022-07-23T03:10:25;4.00;;;3.10;;
58966;SDS011;44744;51.894;5.080;2022-07-23T03:11:25;4.40;;;3.00;;
58966;SDS011;44744;51.894;5.080;2022-07-23T03:12:26;5.30;;;3.30;;
58966;SDS011;44744;51.894;5.080;2022-07-23T03:13:26;4.10;;;2.80;;
58966;SDS011;44744;51.894;5.080;2022-07-23T03:14:26;3.50;;;2.30;;
58966;SDS011;44744;51.894;5.080;2022-07-23T03:15:27;3.40;;;2.70;;
58966;SDS011;44744;51.894;5.080;2022-07-23T03:16:27;5.00;;;3.00;;
58966;SDS011;44744;51.894;5.080;2022-07-23T03:17:28;3.80;;;2.80;;
58966;SDS011;44744;51.894;5.080;2022-07-23T03:18:28;5.50;;;3.10;;
58966;SDS011;44744;51.894;5.080;2022-07-23T03:19:28;5.70;;;3.00;;
58966;SDS011;44744;51.894;5.080;2022-07-23T03:20:29;3.90;;;2.60;;
58966;SDS011;44744;51.894;5.080;2022-07-23T03:21:29;3.20;;;2.90;;
58966;SDS011;44744;51.894;5.080;2022-07-23T03:22:29;4.80;;;3.50;;
58966;SDS011;44744;51.894;5.080;2022-07-23T03:23:30;4.70;;;3.80;;
58966;SDS011;44744;51.894;5.080;2022-07-23T03:24:30;4.10;;;3.70;;
58966;SDS011;44744;51.894;5.080;2022-07-23T03:25:31;4.20;;;3.80;;
58966;SDS011;44744;51.894;5.080;2022-07-23T03:26:31;3.80;;;3.40;;
58966;SDS011;44744;51.894;5.080;2022-07-23T03:27:32;6.60;;;3.30;;
58966;SDS011;44744;51.894;5.080;2022-07-23T03:28:35;4.10;;;2.90;;
58966;SDS011;44744;51.894;5.080;2022-07-23T03:29:35;3.90;;;2.50;;
58966;SDS011;44744;51.894;5.080;2022-07-23T03:30:36;5.20;;;2.60;;
58966;SDS011;44744;51.894;5.080;2022-07-23T03:31:36;3.00;;;2.70;;
58966;SDS011;44744;51.894;5.080;2022-07-23T03:32:37;3.00;;;2.40;;
58966;SDS011;44744;51.894;5.080;2022-07-23T03:33:37;3.20;;;2.20;;
58966;SDS011;44744;51.894;5.080;2022-07-23T03:34:37;3.50;;;2.40;;
58966;SDS011;44744;51.894;5.080;2022-07-23T03:35:38;3.60;;;2.80;;
58966;SDS011;44744;51.894;5.080;2022-07-23T03:36:38;3.40;;;3.00;;
58966;SDS011;44744;51.894;5.080;2022-07-23T03:37:48;3.70;;;3.00;;
58966;SDS011;44744;51.894;5.080;2022-07-23T03:38:48;5.40;;;3.30;;
58966;SDS011;44744;51.894;5.080;2022-07-23T03:40:12;4.00;;;3.10;;
58966;SDS011;44744;51.894;5.080;2022-07-23T03:41:12;4.10;;;2.90;;
58966;SDS011;44744;51.894;5.080;2022-07-23T03:42:15;3.70;;;3.10;;
58966;SDS011;44744;51.894;5.080;2022-07-23T03:43:16;3.50;;;2.80;;
58966;SDS011;44744;51.894;5.080;2022-07-23T03:44:16;5.10;;;3.20;;
58966;SDS011;44744;51.894;5.080;2022-07-23T03:45:28;4.20;;;3.60;;
58966;SDS011;44744;51.894;5.080;2022-07-23T03:46:29;4.70;;;3.30;;
58966;SDS011;44744;51.894;5.080;2022-07-23T03:47:29;4.60;;;3.30;;
58966;SDS011;44744;51.894;5.080;2022-07-23T03:48:29;4.30;;;3.60;;
58966;SDS011;44744;51.894;5.080;2022-07-23T03:49:30;6.10;;;3.90;;
58966;SDS011;44744;51.894;5.080;2022-07-23T03:50:30;13.60;;;4.30;;
58966;SDS011;44744;51.894;5.080;2022-07-23T03:51:30;4.80;;;3.60;;
58966;SDS011;44744;51.894;5.080;2022-07-23T03:52:33;4.60;;;3.20;;
58966;SDS011;44744;51.894;5.080;2022-07-23T03:53:33;3.60;;;3.00;;
58966;SDS011;44744;51.894;5.080;2022-07-23T03:54:34;7.10;;;4.60;;
58966;SDS011;44744;51.894;5.080;2022-07-23T03:55:34;6.20;;;4.40;;
58966;SDS011;44744;51.894;5.080;2022-07-23T03:56:34;7.10;;;4.70;;
58966;SDS011;44744;51.894;5.080;2022-07-23T03:57:37;7.20;;;5.00;;
58966;SDS011;44744;51.894;5.080;2022-07-23T03:58:40;5.20;;;4.50;;
58966;SDS011;44744;51.894;5.080;2022-07-23T03:59:40;9.30;;;4.90;;
58966;SDS011;44744;51.894;5.080;2022-07-23T04:00:43;6.90;;;4.40;;
58966;SDS011;44744;51.894;5.080;2022-07-23T04:01:43;6.30;;;4.10;;
58966;SDS011;44744;51.894;5.080;2022-07-23T04:02:44;5.60;;;4.40;;
58966;SDS011;44744;51.894;5.080;2022-07-23T04:03:47;6.10;;;3.80;;
58966;SDS011;44744;51.894;5.080;2022-07-23T04:04:48;5.00;;;4.40;;
58966;SDS011;44744;51.894;5.080;2022-07-23T04:05:48;5.80;;;4.30;;
58966;SDS011;44744;51.894;5.080;2022-07-23T04:06:51;4.90;;;4.00;;
58966;SDS011;44744;51.894;5.080;2022-07-23T04:07:52;5.50;;;4.30;;
58966;SDS011;44744;51.894;5.080;2022-07-23T04:08:52;7.90;;;4.60;;
58966;SDS011;44744;51.894;5.080;2022-07-23T04:09:52;5.50;;;4.10;;
58966;SDS011;44744;51.894;5.080;2022-07-23T04:10:53;7.20;;;3.90;;
58966;SDS011;44744;51.894;5.080;2022-07-23T04:11:53;12.50;;;4.10;;
58966;SDS011;44744;51.894;5.080;2022-07-23T04:12:53;9.30;;;4.50;;
58966;SDS011;44744;51.894;5.080;2022-07-23T04:13:54;6.00;;;3.90;;
58966;SDS011;44744;51.894;5.080;2022-07-23T04:14:55;7.90;;;3.90;;
58966;SDS011;44744;51.894;5.080;2022-07-23T04:15:55;8.20;;;4.80;;
58966;SDS011;44744;51.894;5.080;2022-07-23T04:16:55;4.40;;;3.90;;
58966;SDS011;44744;51.894;5.080;2022-07-23T04:17:56;7.60;;;3.50;;
58966;SDS011;44744;51.894;5.080;2022-07-23T04:18:57;4.40;;;3.70;;
58966;SDS011;44744;51.894;5.080;2022-07-23T04:19:57;7.60;;;4.00;;
58966;SDS011;44744;51.894;5.080;2022-07-23T04:20:57;4.90;;;4.00;;
58966;SDS011;44744;51.894;5.080;2022-07-23T04:21:58;4.90;;;4.00;;
58966;SDS011;44744;51.894;5.080;2022-07-23T04:22:58;5.40;;;4.30;;
58966;SDS011;44744;51.894;5.080;2022-07-23T04:23:58;5.10;;;3.60;;
58966;SDS011;44744;51.894;5.080;2022-07-23T04:24:59;3.80;;;3.20;;
58966;SDS011;44744;51.894;5.080;2022-07-23T04:25:59;6.50;;;3.30;;
58966;SDS011;44744;51.894;5.080;2022-07-23T04:26:59;4.20;;;3.30;;
58966;SDS011;44744;51.894;5.080;2022-07-23T04:28:00;3.70;;;3.00;;
58966;SDS011;44744;51.894;5.080;2022-07-23T04:29:03;3.60;;;3.00;;
58966;SDS011;44744;51.894;5.080;2022-07-23T04:30:04;3.70;;;3.30;;
58966;SDS011;44744;51.894;5.080;2022-07-23T04:31:05;4.60;;;3.70;;
58966;SDS011;44744;51.894;5.080;2022-07-23T04:32:08;4.70;;;3.70;;
58966;SDS011;44744;51.894;5.080;2022-07-23T04:33:14;5.20;;;3.70;;
58966;SDS011;44744;51.894;5.080;2022-07-23T04:34:17;5.00;;;3.90;;
58966;SDS011;44744;51.894;5.080;2022-07-23T04:35:17;10.90;;;4.50;;
58966;SDS011;44744;51.894;5.080;2022-07-23T04:36:18;7.90;;;4.20;;
58966;SDS011;44744;51.894;5.080;2022-07-23T04:37:19;4.70;;;3.90;;
58966;SDS011;44744;51.894;5.080;2022-07-23T04:38:22;7.00;;;4.20;;
58966;SDS011;44744;51.894;5.080;2022-07-23T04:39:22;6.00;;;4.10;;
58966;SDS011;44744;51.894;5.080;2022-07-23T04:40:23;6.50;;;4.40;;
58966;SDS011;44744;51.894;5.080;2022-07-23T04:41:26;7.20;;;4.00;;
58966;SDS011;44744;51.894;5.080;2022-07-23T04:42:26;5.80;;;4.60;;
58966;SDS011;44744;51.894;5.080;2022-07-23T04:43:27;6.20;;;4.70;;
58966;SDS011;44744;51.894;5.080;2022-07-23T04:44:27;6.50;;;4.60;;
58966;SDS011;44744;51.894;5.080;2022-07-23T04:45:28;5.90;;;4.80;;
58966;SDS011;44744;51.894;5.080;2022-07-23T04:46:28;6.90;;;4.70;;
58966;SDS011;44744;51.894;5.080;2022-07-23T04:47:29;5.50;;;4.40;;
58966;SDS011;44744;51.894;5.080;2022-07-23T04:48:30;6.00;;;4.60;;
58966;SDS011;44744;51.894;5.080;2022-07-23T04:49:30;7.20;;;4.40;;
58966;SDS011;44744;51.894;5.080;2022-07-23T04:50:31;6.30;;;4.60;;
58966;SDS011;44744;51.894;5.080;2022-07-23T04:51:31;9.50;;;4.90;;
58966;SDS011;44744;51.894;5.080;2022-07-23T04:52:31;6.20;;;4.50;;
58966;SDS011;44744;51.894;5.080;2022-07-23T04:53:32;5.90;;;4.40;;
58966;SDS011;44744;51.894;5.080;2022-07-23T04:54:32;7.70;;;5.10;;
58966;SDS011;44744;51.894;5.080;2022-07-23T04:55:32;8.20;;;4.70;;
58966;SDS011;44744;51.894;5.080;2022-07-23T04:56:32;7.70;;;5.00;;
58966;SDS011;44744;51.894;5.080;2022-07-23T04:57:33;6.90;;;5.00;;
58966;SDS011;44744;51.894;5.080;2022-07-23T04:58:36;7.60;;;4.90;;
58966;SDS011;44744;51.894;5.080;2022-07-23T04:59:40;7.30;;;4.90;;
58966;SDS011;44744;51.894;5.080;2022-07-23T05:00:43;6.30;;;4.50;;
58966;SDS011;44744;51.894;5.080;2022-07-23T05:01:43;11.10;;;5.00;;
58966;SDS011;44744;51.894;5.080;2022-07-23T05:02:44;8.60;;;5.10;;
58966;SDS011;44744;51.894;5.080;2022-07-23T05:03:44;7.10;;;4.60;;
58966;SDS011;44744;51.894;5.080;2022-07-23T05:04:44;6.00;;;4.60;;
58966;SDS011;44744;51.894;5.080;2022-07-23T05:05:45;6.10;;;4.70;;
58966;SDS011;44744;51.894;5.080;2022-07-23T05:06:45;5.20;;;4.30;;
58966;SDS011;44744;51.894;5.080;2022-07-23T05:07:46;5.40;;;4.60;;
58966;SDS011;44744;51.894;5.080;2022-07-23T05:08:46;7.00;;;5.00;;
58966;SDS011;44744;51.894;5.080;2022-07-23T05:09:46;9.20;;;5.20;;
58966;SDS011;44744;51.894;5.080;2022-07-23T05:10:47;8.40;;;4.80;;
58966;SDS011;44744;51.894;5.080;2022-07-23T05:11:48;16.40;;;5.10;;
58966;SDS011;44744;51.894;5.080;2022-07-23T05:12:48;5.50;;;4.50;;
58966;SDS011;44744;51.894;5.080;2022-07-23T05:13:50;8.10;;;4.90;;
58966;SDS011;44744;51.894;5.080;2022-07-23T05:14:50;6.90;;;4.80;;
58966;SDS011;44744;51.894;5.080;2022-07-23T05:15:50;7.20;;;5.20;;
58966;SDS011;44744;51.894;5.080;2022-07-23T05:16:51;6.10;;;5.00;;
58966;SDS011;44744;51.894;5.080;2022-07-23T05:17:51;6.20;;;5.00;;
58966;SDS011;44744;51.894;5.080;2022-07-23T05:18:52;7.50;;;5.00;;
58966;SDS011;44744;51.894;5.080;2022-07-23T05:19:52;7.00;;;4.70;;
58966;SDS011;44744;51.894;5.080;2022-07-23T05:20:53;5.00;;;4.50;;
58966;SDS011;44744;51.894;5.080;2022-07-23T05:21:53;5.80;;;5.00;;
58966;SDS011;44744;51.894;5.080;2022-07-23T05:22:53;8.00;;;4.90;;
58966;SDS011;44744;51.894;5.080;2022-07-23T05:23:53;8.60;;;5.30;;
58966;SDS011;44744;51.894;5.080;2022-07-23T05:24:54;6.20;;;4.90;;
58966;SDS011;44744;51.894;5.080;2022-07-23T05:25:54;7.30;;;4.60;;
58966;SDS011;44744;51.894;5.080;2022-07-23T05:26:54;6.30;;;4.90;;
58966;SDS011;44744;51.894;5.080;2022-07-23T05:28:02;7.50;;;5.00;;
58966;SDS011;44744;51.894;5.080;2022-07-23T05:29:03;6.20;;;5.10;;
58966;SDS011;44744;51.894;5.080;2022-07-23T05:30:03;7.90;;;5.10;;
58966;SDS011;44744;51.894;5.080;2022-07-23T05:31:04;6.50;;;5.30;;
58966;SDS011;44744;51.894;5.080;2022-07-23T05:32:04;7.20;;;5.40;;
58966;SDS011;44744;51.894;5.080;2022-07-23T05:33:05;8.40;;;5.10;;
58966;SDS011;44744;51.894;5.080;2022-07-23T05:34:05;9.20;;;5.40;;
58966;SDS011;44744;51.894;5.080;2022-07-23T05:35:09;7.90;;;5.00;;
58966;SDS011;44744;51.894;5.080;2022-07-23T05:36:09;7.60;;;5.60;;
58966;SDS011;44744;51.894;5.080;2022-07-23T05:37:10;7.40;;;5.40;;
58966;SDS011;44744;51.894;5.080;2022-07-23T05:38:10;8.40;;;5.80;;
58966;SDS011;44744;51.894;5.080;2022-07-23T05:39:14;9.80;;;5.60;;
58966;SDS011;44744;51.894;5.080;2022-07-23T05:40:14;9.20;;;5.40;;
58966;SDS011;44744;51.894;5.080;2022-07-23T05:41:14;8.10;;;5.40;;
58966;SDS011;44744;51.894;5.080;2022-07-23T05:42:15;7.90;;;4.80;;
58966;SDS011;44744;51.894;5.080;2022-07-23T05:43:15;7.30;;;4.80;;
58966;SDS011;44744;51.894;5.080;2022-07-23T05:44:15;11.60;;;5.40;;
58966;SDS011;44744;51.894;5.080;2022-07-23T05:45:16;10.10;;;5.20;;
58966;SDS011;44744;51.894;5.080;2022-07-23T05:46:16;11.10;;;6.30;;
58966;SDS011;44744;51.894;5.080;2022-07-23T05:47:16;12.80;;;6.80;;
58966;SDS011;44744;51.894;5.080;2022-07-23T05:48:17;8.90;;;5.80;;
58966;SDS011;44744;51.894;5.080;2022-07-23T05:49:17;12.80;;;6.10;;
58966;SDS011;44744;51.894;5.080;2022-07-23T05:50:17;12.10;;;5.40;;
58966;SDS011;44744;51.894;5.080;2022-07-23T05:51:19;9.20;;;6.30;;
58966;SDS011;44744;51.894;5.080;2022-07-23T05:52:23;8.20;;;5.40;;
58966;SDS011;44744;51.894;5.080;2022-07-23T05:53:23;10.40;;;6.30;;
58966;SDS011;44744;51.894;5.080;2022-07-23T05:54:23;8.60;;;5.90;;
58966;SDS011;44744;51.894;5.080;2022-07-23T05:55:24;10.60;;;6.10;;
58966;SDS011;44744;51.894;5.080;2022-07-23T05:56:24;10.50;;;6.10;;
58966;SDS011;44744;51.894;5.080;2022-07-23T05:57:24;8.80;;;5.60;;
58966;SDS011;44744;51.894;5.080;2022-07-23T05:58:25;7.80;;;5.80;;
58966;SDS011;44744;51.894;5.080;2022-07-23T05:59:25;9.70;;;5.70;;
58966;SDS011;44744;51.894;5.080;2022-07-23T06:00:26;6.40;;;5.60;;
58966;SDS011;44744;51.894;5.080;2022-07-23T06:01:27;6.70;;;5.50;;
58966;SDS011;44744;51.894;5.080;2022-07-23T06:02:30;7.30;;;5.90;;
58966;SDS011;44744;51.894;5.080;2022-07-23T06:03:30;8.70;;;5.20;;
58966;SDS011;44744;51.894;5.080;2022-07-23T06:04:30;5.40;;;4.80;;
58966;SDS011;44744;51.894;5.080;2022-07-23T06:05:31;8.80;;;4.60;;
58966;SDS011;44744;51.894;5.080;2022-07-23T06:06:31;7.50;;;5.00;;
58966;SDS011;44744;51.894;5.080;2022-07-23T06:07:31;7.80;;;4.70;;
58966;SDS011;44744;51.894;5.080;2022-07-23T06:08:32;8.40;;;4.60;;